Terminal Aerodrome Forecast
Issued by NWS

Home | Current Version | Previous Version | Graphics & Text | Print | Product List | Glossary On
Versions: 1 2 3 4 5 6 7 8 9 10 11 12 13 14 15
000
FTUS43 KTOP 261120
TAFFOE
TAF
KFOE 261120Z 2612/2712 09006KT P6SM VCTS SCT040CB BKN090
     FM261400 20009KT P6SM SCT100
     FM270100 18006KT P6SM SCT200=

USA.gov is the U.S. government's official web portal to all federal, state and local government web resources and services.